Time;durP1;ratioP1;P1;durP2;ratioP2;P2;SDS_P1;SDS_P2;PMS_P1;PMS_P2;Temp;Humidity;BMP_temperature;BMP_pressure;BME280_temperature;BME280_humidity;BME280_pressure;Samples;Min_cycle;Max_cycle;Signal;HPM_P1;HPM_P2
2021/10/25 00:02:04;;;;;;;7.10;3.40;;;6.70;99.90;;;;;;5018549;28;20561;-69
2021/10/25 00:04:30;;;;;;;8.25;3.63;;;6.70;99.90;;;;;;5016658;28;20383;-70
2021/10/25 00:06:56;;;;;;;6.78;3.22;;;6.70;99.90;;;;;;5014165;28;20021;-69
2021/10/25 00:09:22;;;;;;;6.38;3.65;;;6.80;99.90;;;;;;5020291;28;20454;-70
2021/10/25 00:11:48;;;;;;;8.23;4.18;;;6.70;99.90;;;;;;5016015;28;20037;-69
2021/10/25 00:14:14;;;;;;;7.93;3.80;;;6.70;99.90;;;;;;5015325;28;20052;-70
2021/10/25 00:16:42;;;;;;;7.43;4.10;;;6.70;99.90;;;;;;5013850;28;20033;-70
2021/10/25 00:19:09;;;;;;;8.65;4.55;;;6.70;99.90;;;;;;5020739;28;20086;-69
2021/10/25 00:21:35;;;;;;;8.65;4.00;;;6.70;99.90;;;;;;5012843;28;20115;-70
2021/10/25 00:24:02;;;;;;;7.78;4.53;;;6.70;99.90;;;;;;5014556;28;20603;-69
2021/10/25 00:26:28;;;;;;;11.07;4.15;;;6.60;99.90;;;;;;5011462;28;20365;-69
2021/10/25 00:28:54;;;;;;;11.20;4.50;;;6.60;99.90;;;;;;5017032;28;20450;-69
2021/10/25 00:31:20;;;;;;;7.20;3.28;;;6.60;99.90;;;;;;5012000;28;20104;-69
2021/10/25 00:33:46;;;;;;;7.85;3.40;;;6.60;99.90;;;;;;5014817;28;20022;-70
2021/10/25 00:36:11;;;;;;;7.05;3.92;;;6.60;99.90;;;;;;5018459;28;20026;-70
2021/10/25 00:38:38;;;;;;;5.40;3.38;;;6.60;99.90;;;;;;5016192;28;20472;-70
2021/10/25 00:41:04;;;;;;;6.57;3.63;;;6.60;99.90;;;;;;5015547;28;20099;-70
2021/10/25 00:43:30;;;;;;;7.40;3.28;;;6.60;99.90;;;;;;5010461;28;20050;-69
2021/10/25 00:45:56;;;;;;;7.70;2.95;;;6.60;99.90;;;;;;5016825;28;20030;-70
2021/10/25 00:48:22;;;;;;;6.78;3.78;;;6.60;99.90;;;;;;5020500;28;20022;-69
2021/10/25 00:50:48;;;;;;;6.30;3.42;;;6.60;99.90;;;;;;5013198;28;20101;-69
2021/10/25 00:53:14;;;;;;;7.22;3.22;;;6.60;99.90;;;;;;5014319;28;20021;-69
2021/10/25 00:55:40;;;;;;;6.45;3.67;;;6.60;99.90;;;;;;5014660;28;20041;-69
2021/10/25 00:58:07;;;;;;;5.75;3.35;;;6.60;99.90;;;;;;5017128;28;20634;-70
2021/10/25 01:00:34;;;;;;;5.95;3.10;;;6.60;99.90;;;;;;5010732;28;20095;-69
2021/10/25 01:03:00;;;;;;;8.48;3.90;;;6.60;99.90;;;;;;5019141;28;20057;-70
2021/10/25 01:05:27;;;;;;;7.75;3.20;;;6.60;99.90;;;;;;5019768;28;20037;-70
2021/10/25 01:07:55;;;;;;;7.15;3.70;;;6.50;99.90;;;;;;5026289;28;20030;-69
2021/10/25 01:10:21;;;;;;;5.63;3.00;;;6.50;99.90;;;;;;5013468;28;20097;-70
2021/10/25 01:12:50;;;;;;;6.40;3.05;;;6.50;99.90;;;;;;5012933;28;20040;-69
2021/10/25 01:15:15;;;;;;;8.48;3.35;;;6.50;99.90;;;;;;5012621;28;20022;-69
2021/10/25 01:17:41;;;;;;;6.65;3.38;;;6.40;99.90;;;;;;5017315;28;20026;-70
2021/10/25 01:20:07;;;;;;;8.68;3.70;;;6.40;99.90;;;;;;5013762;28;20033;-69
2021/10/25 01:22:34;;;;;;;9.95;4.40;;;6.40;99.90;;;;;;5010593;28;20069;-70
2021/10/25 01:25:01;;;;;;;7.38;3.53;;;6.40;99.90;;;;;;5015166;28;20038;-69
2021/10/25 01:27:27;;;;;;;8.43;3.90;;;6.40;99.90;;;;;;5010322;28;20030;-70
2021/10/25 01:29:52;;;;;;;7.65;3.47;;;6.30;99.90;;;;;;5008551;28;20104;-69
2021/10/25 01:32:18;;;;;;;6.22;3.63;;;6.30;99.90;;;;;;5011821;28;20030;-69
2021/10/25 01:34:44;;;;;;;7.45;3.92;;;6.30;99.90;;;;;;5017381;28;21014;-69
2021/10/25 01:37:10;;;;;;;8.25;3.60;;;6.30;99.90;;;;;;5015750;28;20117;-69
2021/10/25 01:39:37;;;;;;;9.30;3.90;;;6.30;99.90;;;;;;5016289;28;20042;-69
2021/10/25 01:42:03;;;;;;;5.13;3.35;;;6.40;99.90;;;;;;5013230;28;20026;-70
2021/10/25 01:44:29;;;;;;;6.38;3.45;;;6.30;99.90;;;;;;5025642;28;20526;-69
2021/10/25 01:46:54;;;;;;;5.20;3.40;;;6.30;99.90;;;;;;5019501;28;20069;-69
2021/10/25 01:49:20;;;;;;;7.00;3.42;;;6.40;99.90;;;;;;5019652;28;20092;-69
2021/10/25 01:51:46;;;;;;;8.32;3.38;;;6.40;99.90;;;;;;5016927;28;20099;-69
2021/10/25 01:54:11;;;;;;;9.93;3.72;;;6.40;99.90;;;;;;5013841;28;20022;-69
2021/10/25 01:56:37;;;;;;;6.85;3.80;;;6.40;99.90;;;;;;5012207;28;20026;-70
2021/10/25 01:59:06;;;;;;;5.70;3.47;;;6.40;99.90;;;;;;5012827;28;20049;-69
2021/10/25 02:01:32;;;;;;;6.25;3.58;;;6.40;99.90;;;;;;5017696;28;20026;-69
2021/10/25 02:03:58;;;;;;;7.95;3.97;;;6.30;99.90;;;;;;5019491;28;20036;-70
2021/10/25 02:06:23;;;;;;;7.50;4.15;;;6.30;99.90;;;;;;5012152;28;20026;-70
2021/10/25 02:08:49;;;;;;;14.10;4.07;;;6.20;99.90;;;;;;5017422;28;20586;-70
2021/10/25 02:11:15;;;;;;;6.57;3.20;;;6.20;99.90;;;;;;5017738;28;20034;-69
2021/10/25 02:13:41;;;;;;;6.95;3.38;;;6.20;99.90;;;;;;5016619;28;20029;-69
2021/10/25 02:16:08;;;;;;;6.63;3.63;;;6.20;99.90;;;;;;5019032;28;20030;-70
2021/10/25 02:18:34;;;;;;;8.77;3.78;;;6.20;99.90;;;;;;5019795;28;20034;-70
2021/10/25 02:21:00;;;;;;;7.18;3.78;;;6.10;99.90;;;;;;5010179;28;20033;-70
2021/10/25 02:23:26;;;;;;;8.20;4.00;;;6.10;99.90;;;;;;5019527;28;20044;-70
2021/10/25 02:25:53;;;;;;;9.57;3.72;;;6.00;99.90;;;;;;5021104;28;20047;-69
2021/10/25 02:28:20;;;;;;;9.40;3.78;;;6.00;99.90;;;;;;5018460;28;20073;-70
2021/10/25 02:30:47;;;;;;;8.90;4.20;;;6.00;99.90;;;;;;5016540;28;20030;-70
2021/10/25 02:33:13;;;;;;;7.82;3.63;;;6.00;99.90;;;;;;5023758;28;20030;-70
2021/10/25 02:35:39;;;;;;;8.68;3.80;;;6.00;99.90;;;;;;5019254;28;20030;-69
2021/10/25 02:38:05;;;;;;;6.93;4.18;;;6.10;99.90;;;;;;5018015;28;20030;-69
2021/10/25 02:40:31;;;;;;;10.13;4.35;;;6.00;99.90;;;;;;5013612;28;21841;-70
2021/10/25 02:42:57;;;;;;;9.00;3.88;;;6.10;99.90;;;;;;5017801;28;20034;-69
2021/10/25 02:45:24;;;;;;;8.13;4.30;;;6.00;99.90;;;;;;5016933;28;20041;-70
2021/10/25 02:47:51;;;;;;;6.32;3.78;;;6.10;99.90;;;;;;5015084;28;20030;-69
2021/10/25 02:50:17;;;;;;;8.18;3.70;;;6.00;99.90;;;;;;5016761;28;20025;-70
2021/10/25 02:52:43;;;;;;;11.73;4.22;;;6.00;99.90;;;;;;5020346;28;20030;-70
2021/10/25 02:55:09;;;;;;;6.78;3.53;;;6.00;99.90;;;;;;5019292;28;20099;-69
2021/10/25 02:57:39;;;;;;;8.70;4.13;;;6.00;99.90;;;;;;5015912;28;20040;-69
2021/10/25 03:00:06;;;;;;;7.72;3.72;;;6.00;99.90;;;;;;5016651;28;20381;-69
2021/10/25 03:02:32;;;;;;;7.07;3.85;;;6.00;99.90;;;;;;5020819;28;20052;-70
2021/10/25 03:04:58;;;;;;;8.52;4.25;;;6.00;99.90;;;;;;5017981;28;20037;-69
2021/10/25 03:07:24;;;;;;;9.75;4.20;;;6.00;99.90;;;;;;5016666;28;20037;-70
2021/10/25 03:09:50;;;;;;;9.45;3.88;;;6.00;99.90;;;;;;5014713;28;20036;-70
2021/10/25 03:12:15;;;;;;;8.88;3.78;;;6.00;99.90;;;;;;5011024;28;20079;-69
2021/10/25 03:14:42;;;;;;;7.68;4.00;;;6.00;99.90;;;;;;5022373;28;20022;-70
2021/10/25 03:17:08;;;;;;;6.32;3.75;;;6.10;99.90;;;;;;5016537;28;20030;-70
2021/10/25 03:19:34;;;;;;;9.75;3.85;;;6.10;99.90;;;;;;5019298;28;20025;-69
2021/10/25 03:21:59;;;;;;;8.88;3.83;;;6.00;99.90;;;;;;5008908;28;20105;-70
2021/10/25 03:24:25;;;;;;;8.05;4.43;;;6.00;99.90;;;;;;5005300;28;20026;-70
2021/10/25 03:26:51;;;;;;;9.65;4.07;;;6.00;99.90;;;;;;5014777;28;20757;-70
2021/10/25 03:29:17;;;;;;;6.72;4.50;;;6.00;99.90;;;;;;5016524;28;20045;-70
2021/10/25 03:31:42;;;;;;;9.20;4.35;;;6.00;99.90;;;;;;5016975;28;20024;-70
2021/10/25 03:34:08;;;;;;;7.90;4.18;;;6.00;99.90;;;;;;5015509;28;20055;-69
2021/10/25 03:36:35;;;;;;;7.70;5.00;;;5.90;99.90;;;;;;5021066;28;20468;-70
2021/10/25 03:39:00;;;;;;;9.85;4.28;;;5.90;99.90;;;;;;5015526;28;20022;-70
2021/10/25 03:41:49;;;;;;;8.38;4.10;;;5.90;99.90;;;;;;5012720;28;20104;-70
2021/10/25 03:44:20;;;;;;;9.38;4.05;;;5.90;99.90;;;;;;5017685;28;20048;-70
2021/10/25 03:51:47;;;;;;;9.35;4.43;;;5.90;99.90;;;;;;5008911;28;20109;-70
2021/10/25 04:13:12;;;;;;;7.32;4.53;;;6.00;99.90;;;;;;5016821;28;20096;-70
2021/10/25 04:13:45;;;;;;;9.20;4.28;;;5.90;99.90;;;;;;5016783;28;20109;-70
2021/10/25 04:28:11;;;;;;;9.85;4.40;;;5.90;99.90;;;;;;5014823;28;20080;-70
2021/10/25 04:30:05;;;;;;;9.32;5.05;;;5.90;99.90;;;;;;5004343;28;20045;-69
2021/10/25 04:32:31;;;;;;;7.70;4.70;;;5.90;99.90;;;;;;5015703;28;20109;-70
2021/10/25 04:34:56;;;;;;;11.60;5.32;;;5.90;99.90;;;;;;5018724;28;20093;-69
2021/10/25 04:37:22;;;;;;;11.35;4.95;;;5.80;99.90;;;;;;5017279;28;20036;-69
2021/10/25 04:39:48;;;;;;;9.23;4.60;;;5.80;99.90;;;;;;5012486;28;20029;-70
2021/10/25 04:42:16;;;;;;;7.05;4.80;;;5.80;99.90;;;;;;5005365;28;20030;-68
2021/10/25 04:44:47;;;;;;;10.15;4.57;;;5.80;99.90;;;;;;5017031;28;20056;-69
2021/10/25 04:47:13;;;;;;;9.50;4.50;;;5.80;99.90;;;;;;5011399;28;20040;-69
2021/10/25 04:49:40;;;;;;;8.45;4.80;;;5.80;99.90;;;;;;5014455;28;20120;-69
2021/10/25 04:52:06;;;;;;;9.77;4.85;;;5.80;99.90;;;;;;5016721;28;20109;-69
2021/10/25 04:54:31;;;;;;;8.30;4.93;;;5.80;99.90;;;;;;5012939;28;20476;-70
2021/10/25 04:56:58;;;;;;;8.98;4.78;;;5.80;99.90;;;;;;5017982;28;20052;-69
2021/10/25 04:59:23;;;;;;;9.20;4.75;;;5.80;99.90;;;;;;5014066;28;20096;-69
2021/10/25 05:01:50;;;;;;;8.82;5.10;;;5.80;99.90;;;;;;5009536;28;20538;-71
2021/10/25 05:04:15;;;;;;;9.40;5.38;;;5.80;99.90;;;;;;5014073;28;20014;-70
2021/10/25 05:06:41;;;;;;;8.02;4.63;;;5.80;99.90;;;;;;5017116;28;20025;-70
2021/10/25 05:09:07;;;;;;;11.40;5.00;;;5.80;99.90;;;;;;5017732;28;20032;-70
2021/10/25 05:11:33;;;;;;;10.05;4.95;;;5.80;99.90;;;;;;5011377;28;20064;-71
2021/10/25 05:13:59;;;;;;;9.77;5.65;;;5.70;99.90;;;;;;5014653;28;20369;-70
2021/10/25 05:16:25;;;;;;;8.48;5.13;;;5.70;99.90;;;;;;5013555;28;20033;-70
2021/10/25 05:18:50;;;;;;;8.63;4.88;;;5.70;99.90;;;;;;5021897;28;20029;-70
2021/10/25 05:21:16;;;;;;;10.55;4.90;;;5.70;99.90;;;;;;5016951;28;20030;-71
2021/10/25 05:23:42;;;;;;;9.20;4.47;;;5.70;99.90;;;;;;5018097;28;20108;-69
2021/10/25 05:26:08;;;;;;;7.22;4.50;;;5.70;99.90;;;;;;5016438;28;20134;-69
2021/10/25 05:28:34;;;;;;;8.68;5.82;;;5.70;99.90;;;;;;5021748;28;20030;-69
2021/10/25 05:31:00;;;;;;;9.32;5.47;;;5.70;99.90;;;;;;5009470;28;20033;-70
2021/10/25 05:33:25;;;;;;;8.50;5.20;;;5.70;99.90;;;;;;5011192;28;20064;-69
2021/10/25 05:35:52;;;;;;;8.80;4.95;;;5.70;99.90;;;;;;5019333;28;20056;-70
2021/10/25 05:38:18;;;;;;;12.93;5.70;;;5.70;99.90;;;;;;5019292;28;20493;-69
2021/10/25 05:40:44;;;;;;;10.85;5.47;;;5.70;99.90;;;;;;5019617;28;20025;-69
2021/10/25 05:43:10;;;;;;;9.90;5.90;;;5.70;99.90;;;;;;5007050;28;20033;-69
2021/10/25 05:45:37;;;;;;;8.07;5.05;;;5.70;99.90;;;;;;5018461;28;20105;-69
2021/10/25 05:48:03;;;;;;;9.60;5.22;;;5.70;99.90;;;;;;5021672;28;20037;-69
2021/10/25 05:50:29;;;;;;;10.30;5.65;;;5.70;99.90;;;;;;5009919;28;20030;-69
2021/10/25 05:52:55;;;;;;;12.40;5.70;;;5.70;99.90;;;;;;5018386;28;20851;-69
2021/10/25 05:55:23;;;;;;;12.80;5.38;;;5.70;99.90;;;;;;5017676;28;20033;-69
2021/10/25 05:57:52;;;;;;;10.15;5.55;;;5.70;99.90;;;;;;5017547;28;20072;-69
2021/10/25 06:00:21;;;;;;;11.55;5.22;;;5.70;99.90;;;;;;5016564;28;20068;-69
2021/10/25 06:02:54;;;;;;;10.20;5.57;;;5.70;99.90;;;;;;5017708;28;20022;-69
2021/10/25 06:05:25;;;;;;;12.35;6.15;;;5.70;99.90;;;;;;5018842;28;20475;-69
2021/10/25 06:07:51;;;;;;;;;;;5.80;99.90;;;;;;5017002;28;20029;-69
2021/10/25 06:10:18;;;;;;;10.00;5.97;;;5.80;99.90;;;;;;5018261;28;19966;-69
2021/10/25 06:12:48;;;;;;;10.68;6.18;;;5.80;99.90;;;;;;5015568;28;20030;-70
2021/10/25 06:15:18;;;;;;;10.75;5.35;;;5.80;99.90;;;;;;5017928;28;20072;-71
2021/10/25 06:17:56;;;;;;;8.38;5.30;;;5.80;99.90;;;;;;5010764;28;20087;-71
2021/10/25 06:20:31;;;;;;;8.75;5.80;;;5.80;99.90;;;;;;5015508;28;20025;-69
2021/10/25 06:22:58;;;;;;;11.68;5.07;;;5.90;99.90;;;;;;5014176;28;20450;-70
2021/10/25 06:25:23;;;;;;;11.23;5.90;;;5.80;99.90;;;;;;5014314;28;20501;-72
2021/10/25 06:27:51;;;;;;;10.18;5.57;;;5.90;99.90;;;;;;5010502;28;20054;-71
2021/10/25 06:30:17;;;;;;;10.30;5.50;;;5.90;99.90;;;;;;5016987;28;20033;-71
2021/10/25 06:32:43;;;;;;;9.43;6.20;;;5.90;99.90;;;;;;5013004;28;20379;-71
2021/10/25 06:35:12;;;;;;;11.93;5.88;;;5.90;99.90;;;;;;5021102;28;20047;-71
2021/10/25 06:38:08;;;;;;;9.43;5.55;;;6.00;99.90;;;;;;5013574;28;20030;-71
2021/10/25 06:40:26;;;;;;;15.73;6.10;;;6.00;99.90;;;;;;5012989;28;20065;-71
2021/10/25 06:42:52;;;;;;;14.70;7.45;;;6.00;99.90;;;;;;5010532;28;20487;-70
2021/10/25 06:45:21;;;;;;;12.23;6.40;;;6.00;99.90;;;;;;5017087;28;20033;-70
2021/10/25 06:47:48;;;;;;;9.60;5.72;;;6.00;99.90;;;;;;5017398;28;20076;-70
2021/10/25 06:50:15;;;;;;;15.73;6.57;;;6.00;99.90;;;;;;5015992;28;20036;-71
2021/10/25 06:52:42;;;;;;;12.10;6.00;;;6.00;99.90;;;;;;5014532;28;20558;-71
2021/10/25 06:55:08;;;;;;;13.25;6.10;;;6.00;99.90;;;;;;5016341;28;20036;-70
2021/10/25 06:57:35;;;;;;;10.13;6.30;;;6.10;99.90;;;;;;5015923;28;20518;-71
2021/10/25 07:00:02;;;;;;;12.80;6.50;;;6.10;99.90;;;;;;5019478;28;20853;-70
2021/10/25 07:02:28;;;;;;;12.77;6.70;;;6.10;99.90;;;;;;5016350;28;20052;-70
2021/10/25 07:04:54;;;;;;;15.35;7.57;;;6.10;99.90;;;;;;5019677;28;20488;-70
2021/10/25 07:07:24;;;;;;;14.40;6.93;;;6.10;99.90;;;;;;5013771;28;20058;-71
2021/10/25 07:09:50;;;;;;;15.15;7.13;;;6.20;99.90;;;;;;5013435;28;20105;-70
2021/10/25 07:12:16;;;;;;;17.42;7.53;;;6.30;99.90;;;;;;5013525;28;20119;-70
2021/10/25 07:14:43;;;;;;;13.55;7.40;;;6.30;99.90;;;;;;5017256;28;20022;-70
2021/10/25 07:17:23;;;;;;;12.32;6.50;;;6.30;99.90;;;;;;5018407;28;20100;-70
2021/10/25 08:01:02;;;;;;;16.48;8.07;;;7.00;99.90;;;;;;5008318;28;20052;-71
2021/10/25 08:06:13;;;;;;;13.38;6.60;;;7.20;99.90;;;;;;5013913;28;20029;-70
2021/10/25 08:11:12;;;;;;;14.13;7.72;;;7.30;99.90;;;;;;5014231;28;20038;-70
2021/10/25 08:13:41;;;;;;;13.05;7.30;;;7.30;99.90;;;;;;5014082;28;20026;-70
2021/10/25 08:16:23;;;;;;;15.18;7.68;;;7.30;99.90;;;;;;5017958;28;20527;-70
2021/10/25 08:21:20;;;;;;;13.68;6.47;;;7.40;99.90;;;;;;5012604;28;20388;-71
2021/10/25 08:23:46;;;;;;;11.77;7.13;;;7.40;99.90;;;;;;5014484;28;20037;-71
2021/10/25 08:26:12;;;;;;;12.35;6.90;;;7.50;99.90;;;;;;5022746;28;20739;-70
2021/10/25 08:28:39;;;;;;;14.60;7.47;;;7.50;99.90;;;;;;5013508;28;20026;-70
2021/10/25 08:31:07;;;;;;;13.82;7.63;;;7.60;99.90;;;;;;5013976;28;20140;-70
2021/10/25 08:41:32;;;;;;;15.95;8.10;;;7.70;99.90;;;;;;5014101;28;20088;-69
2021/10/25 08:43:59;;;;;;;16.52;8.55;;;7.80;99.90;;;;;;5018520;28;20495;-69
2021/10/25 08:46:27;;;;;;;15.80;8.07;;;7.80;99.90;;;;;;5015367;28;20037;-70
2021/10/25 08:48:54;;;;;;;13.10;7.88;;;7.80;99.90;;;;;;5013056;28;20026;-70
2021/10/25 08:51:20;;;;;;;14.50;7.50;;;7.90;99.90;;;;;;5013937;28;20157;-70
2021/10/25 08:53:47;;;;;;;16.52;8.25;;;7.90;99.90;;;;;;5021627;28;20041;-69
2021/10/25 08:56:19;;;;;;;13.75;6.95;;;8.00;99.90;;;;;;5019659;28;20018;-70
2021/10/25 08:58:49;;;;;;;14.32;7.50;;;8.00;99.90;;;;;;5020095;28;20026;-70
2021/10/25 09:01:29;;;;;;;11.73;7.50;;;8.10;99.90;;;;;;5013034;28;20037;-70
2021/10/25 09:04:21;;;;;;;13.37;6.33;;;8.10;99.90;;;;;;5021036;28;20032;-70
2021/10/25 09:06:55;;;;;;;15.07;6.85;;;8.20;99.90;;;;;;5019131;28;20038;-70
2021/10/25 09:09:22;;;;;;;11.48;6.47;;;8.20;99.90;;;;;;5013043;28;20036;-70
2021/10/25 09:12:00;;;;;;;13.70;7.35;;;8.30;99.90;;;;;;5018130;28;20030;-70
2021/10/25 09:14:26;;;;;;;16.13;8.43;;;8.40;99.90;;;;;;5018425;28;20022;-71
2021/10/25 09:17:15;;;;;;;14.40;7.18;;;8.40;99.90;;;;;;5025818;28;20037;-70
2021/10/25 09:19:41;;;;;;;14.05;8.13;;;8.50;99.90;;;;;;5021890;28;21006;-70
2021/10/25 09:22:15;;;;;;;14.65;7.38;;;8.60;99.90;;;;;;5017956;28;20168;-70
2021/10/25 09:24:49;;;;;;;12.18;7.07;;;8.60;99.90;;;;;;5018452;28;20037;-71
2021/10/25 09:27:15;;;;;;;14.93;7.68;;;8.70;99.90;;;;;;5003077;28;20029;-70
2021/10/25 09:29:45;;;;;;;12.38;6.50;;;8.80;99.90;;;;;;5014555;28;20523;-70
2021/10/25 09:32:13;;;;;;;14.73;7.55;;;8.90;99.90;;;;;;5022164;28;20036;-70
2021/10/25 09:34:47;;;;;;;9.93;5.93;;;9.00;99.90;;;;;;5023187;28;20018;-71
2021/10/25 09:37:24;;;;;;;10.90;6.38;;;9.20;99.90;;;;;;5021014;28;20048;-71
2021/10/25 09:40:01;;;;;;;13.48;6.28;;;9.30;99.90;;;;;;5020092;28;20029;-71
2021/10/25 09:49:02;;;;;;;10.68;6.40;;;9.80;99.90;;;;;;4955446;28;20438;-71
2021/10/25 09:51:04;;;;;;;14.43;7.38;;;9.90;99.90;;;;;;5019686;28;20595;-71
2021/10/25 09:53:43;;;;;;;11.57;6.47;;;10.10;99.90;;;;;;5013674;28;20054;-72
2021/10/25 09:56:11;;;;;;;12.00;6.28;;;10.20;99.90;;;;;;5017805;28;20034;-70
2021/10/25 09:58:46;;;;;;;11.02;6.70;;;10.40;99.90;;;;;;5016879;28;20022;-71
2021/10/25 10:01:14;;;;;;;13.18;7.18;;;10.60;99.90;;;;;;5016421;28;20053;-72
2021/10/25 10:03:40;;;;;;;15.63;7.00;;;10.60;99.70;;;;;;5011266;28;20026;-72
2021/10/25 10:06:06;;;;;;;10.48;7.15;;;10.80;99.90;;;;;;5013777;28;20030;-70
2021/10/25 10:08:34;;;;;;;12.18;6.43;;;10.90;99.90;;;;;;5014178;28;20121;-71
2021/10/25 10:11:00;;;;;;;10.02;6.05;;;11.10;99.90;;;;;;5011025;28;20026;-71
2021/10/25 10:13:27;;;;;;;9.75;6.38;;;11.30;99.90;;;;;;5018458;28;20021;-72
2021/10/25 10:15:54;;;;;;;14.48;6.20;;;11.40;99.10;;;;;;5018321;28;20090;-71
2021/10/25 10:18:23;;;;;;;10.38;6.07;;;11.50;98.60;;;;;;5018845;28;20080;-71
2021/10/25 10:20:53;;;;;;;9.95;6.03;;;12.00;97.70;;;;;;5020844;28;20042;-72
2021/10/25 10:23:20;;;;;;;8.43;5.35;;;13.00;94.60;;;;;;5020978;28;20037;-71
2021/10/25 10:25:49;;;;;;;10.70;5.95;;;14.80;93.00;;;;;;5015055;28;20036;-71
2021/10/25 10:28:17;;;;;;;9.88;6.00;;;16.20;80.80;;;;;;5013548;28;20105;-73
2021/10/25 10:30:52;;;;;;;5.78;4.40;;;16.70;79.90;;;;;;5013442;28;20503;-72
2021/10/25 10:33:31;;;;;;;9.68;4.85;;;18.30;77.50;;;;;;5018973;28;20104;-72
2021/10/25 10:36:12;;;;;;;5.72;4.03;;;20.00;73.00;;;;;;5018494;28;20025;-72
2021/10/25 10:38:53;;;;;;;8.35;4.20;;;21.20;65.00;;;;;;5016341;28;20080;-71
2021/10/25 10:41:54;;;;;;;7.45;4.88;;;22.10;60.10;;;;;;5018310;28;20080;-72
2021/10/25 10:44:23;;;;;;;7.57;4.28;;;21.90;54.00;;;;;;5018034;28;20110;-72
2021/10/25 10:46:51;;;;;;;5.35;3.45;;;21.00;53.00;;;;;;5018750;28;20029;-71
2021/10/25 10:49:38;;;;;;;7.35;4.47;;;20.00;58.70;;;;;;5012790;28;20018;-71
2021/10/25 10:55:15;;;;;;;8.23;4.03;;;16.70;71.20;;;;;;5018646;28;20471;-72
2021/10/25 11:00:37;;;;;;;7.18;4.95;;;15.40;82.50;;;;;;5016079;28;20026;-71
2021/10/25 11:03:09;;;;;;;9.02;4.95;;;14.70;86.90;;;;;;5020192;28;20488;-71
2021/10/25 11:05:39;;;;;;;7.28;4.47;;;14.30;90.60;;;;;;5020781;28;20040;-71
2021/10/25 11:08:11;;;;;;;8.90;4.90;;;13.80;92.20;;;;;;5012761;28;20038;-71
2021/10/25 11:10:38;;;;;;;8.98;4.63;;;13.60;92.90;;;;;;5013716;28;20082;-71
2021/10/25 11:13:15;;;;;;;7.72;4.47;;;13.40;94.00;;;;;;5010936;28;20064;-71
2021/10/25 11:16:11;;;;;;;8.05;4.70;;;13.40;94.40;;;;;;5016928;28;20092;-71
2021/10/25 11:18:40;;;;;;;8.77;4.88;;;13.60;94.90;;;;;;5016337;28;20112;-72
2021/10/25 11:21:07;;;;;;;7.72;4.15;;;13.60;95.10;;;;;;5017064;28;20048;-71
2021/10/25 11:23:43;;;;;;;7.72;4.80;;;13.60;94.90;;;;;;5017230;28;20051;-71
2021/10/25 11:26:14;;;;;;;8.68;5.20;;;13.40;94.00;;;;;;5019171;28;20447;-71
2021/10/25 11:28:57;;;;;;;6.45;4.43;;;13.20;94.60;;;;;;5018816;28;20037;-72
2021/10/25 11:31:24;;;;;;;7.50;4.55;;;13.20;95.50;;;;;;5008301;28;20057;-71
2021/10/25 11:33:50;;;;;;;11.63;5.90;;;13.10;95.40;;;;;;5011229;28;20029;-71
2021/10/25 11:36:19;;;;;;;10.30;5.88;;;13.00;95.00;;;;;;5020488;28;20026;-72
2021/10/25 11:38:45;;;;;;;10.75;5.35;;;12.90;95.40;;;;;;5021848;28;20053;-71
2021/10/25 11:41:11;;;;;;;7.97;5.05;;;12.80;95.60;;;;;;5016871;28;20491;-71
2021/10/25 11:43:37;;;;;;;7.80;5.13;;;12.80;96.10;;;;;;5018165;28;20491;-72
2021/10/25 11:46:20;;;;;;;10.30;5.43;;;12.70;97.00;;;;;;5019636;28;20044;-72
2021/10/25 11:48:54;;;;;;;8.25;4.72;;;12.60;96.10;;;;;;5016908;28;20040;-71
2021/10/25 11:51:21;;;;;;;11.35;5.15;;;12.50;96.80;;;;;;5018804;28;20037;-71
2021/10/25 11:53:52;;;;;;;11.98;4.72;;;12.40;97.00;;;;;;5018696;28;20033;-71
2021/10/25 11:56:18;;;;;;;8.63;4.10;;;12.40;97.30;;;;;;5010403;28;20025;-71
2021/10/25 11:58:44;;;;;;;5.85;3.80;;;12.50;97.90;;;;;;5020198;28;20380;-71
2021/10/25 12:01:14;;;;;;;5.82;4.18;;;12.50;98.10;;;;;;5017681;28;20488;-72
2021/10/25 12:03:40;;;;;;;7.38;5.10;;;12.50;98.40;;;;;;5019497;28;20246;-71
2021/10/25 12:06:19;;;;;;;8.15;4.47;;;12.50;97.90;;;;;;5019733;28;20069;-71
2021/10/25 12:08:56;;;;;;;8.80;4.88;;;12.50;98.20;;;;;;5014975;28;20456;-71
2021/10/25 12:11:33;;;;;;;6.10;4.40;;;12.50;98.00;;;;;;5032976;28;20388;-71
2021/10/25 12:14:00;;;;;;;8.45;5.07;;;12.50;98.30;;;;;;5010554;28;20021;-71
2021/10/25 12:16:27;;;;;;;9.73;4.70;;;12.40;98.10;;;;;;5013606;28;20485;-71
2021/10/25 12:18:54;;;;;;;8.20;5.32;;;12.40;98.60;;;;;;5014847;28;20404;-71
2021/10/25 12:21:30;;;;;;;8.57;4.68;;;12.40;98.50;;;;;;5017290;28;20376;-72
2021/10/25 12:23:55;;;;;;;9.63;5.30;;;12.40;98.80;;;;;;5018079;28;20518;-72
2021/10/25 12:26:21;;;;;;;9.65;5.28;;;12.30;98.80;;;;;;5017406;28;20038;-71
2021/10/25 12:28:47;;;;;;;11.68;5.00;;;12.20;99.10;;;;;;5015841;28;20040;-71
2021/10/25 12:31:18;;;;;;;11.40;5.00;;;12.20;99.30;;;;;;5017002;28;20175;-71
2021/10/25 12:33:46;;;;;;;9.02;5.43;;;12.20;99.40;;;;;;5017878;28;20038;-71
2021/10/25 12:36:17;;;;;;;7.53;4.18;;;12.20;99.50;;;;;;5018441;28;20447;-71
2021/10/25 12:38:45;;;;;;;8.98;4.80;;;12.30;99.70;;;;;;5016407;28;20041;-71
2021/10/25 12:41:11;;;;;;;8.93;4.70;;;12.30;99.90;;;;;;5016576;28;20045;-71
2021/10/25 12:43:46;;;;;;;11.88;4.57;;;12.20;99.90;;;;;;5016828;28;20033;-71
2021/10/25 12:46:21;;;;;;;12.20;4.93;;;12.20;99.90;;;;;;5020170;28;20204;-71
2021/10/25 12:48:48;;;;;;;11.65;5.30;;;12.20;99.90;;;;;;5020409;28;20034;-71
2021/10/25 12:51:14;;;;;;;11.77;5.03;;;12.10;99.90;;;;;;5020359;28;20292;-71
2021/10/25 12:53:45;;;;;;;9.02;4.57;;;12.10;99.90;;;;;;5018420;28;20030;-71
2021/10/25 12:56:12;;;;;;;11.10;4.97;;;12.10;99.90;;;;;;5018222;28;20454;-71
2021/10/25 12:58:38;;;;;;;20.98;5.15;;;12.10;99.90;;;;;;5018180;28;20032;-71
2021/10/25 13:01:11;;;;;;;26.23;15.07;;;12.20;99.90;;;;;;5025088;28;20037;-72
2021/10/25 13:03:45;;;;;;;11.77;5.47;;;12.20;99.90;;;;;;5018063;28;20037;-70
2021/10/25 13:06:11;;;;;;;17.80;7.93;;;12.20;99.90;;;;;;5018251;28;20395;-74
2021/10/25 13:08:37;;;;;;;73.53;44.53;;;12.20;99.90;;;;;;5019508;28;20035;-71
2021/10/25 13:11:05;;;;;;;14.57;8.65;;;12.20;99.90;;;;;;5016104;28;20105;-70
2021/10/25 13:13:35;;;;;;;10.52;5.53;;;12.30;99.90;;;;;;5007949;28;20113;-70
2021/10/25 13:16:02;;;;;;;10.10;4.75;;;12.30;99.90;;;;;;5017199;28;20088;-69
2021/10/25 13:18:29;;;;;;;9.18;4.13;;;12.20;99.90;;;;;;5006613;28;20026;-70
2021/10/25 13:20:56;;;;;;;14.05;5.10;;;12.30;99.90;;;;;;5012682;28;20065;-69
2021/10/25 13:23:23;;;;;;;7.88;4.25;;;12.30;99.90;;;;;;5015939;28;20316;-70
2021/10/25 13:25:50;;;;;;;8.23;4.30;;;12.30;99.90;;;;;;5018516;28;20093;-70
2021/10/25 13:28:17;;;;;;;10.00;5.05;;;12.30;99.90;;;;;;5014141;28;20068;-71
2021/10/25 13:30:43;;;;;;;8.77;5.00;;;12.30;99.90;;;;;;5015281;28;20029;-72
2021/10/25 13:33:08;;;;;;;9.38;4.93;;;12.40;99.90;;;;;;5017022;28;20109;-73
2021/10/25 13:35:34;;;;;;;10.55;5.07;;;12.40;99.90;;;;;;5018902;28;20492;-73
2021/10/25 13:38:00;;;;;;;13.90;5.10;;;12.40;99.90;;;;;;5018800;28;20037;-73
2021/10/25 13:40:29;;;;;;;7.40;4.07;;;12.40;99.90;;;;;;5020613;28;20034;-73
2021/10/25 13:42:57;;;;;;;11.82;4.45;;;12.40;99.90;;;;;;5022029;28;20056;-72
2021/10/25 13:45:23;;;;;;;7.93;4.30;;;12.40;99.90;;;;;;5020455;28;20026;-73
2021/10/25 13:47:49;;;;;;;5.78;4.10;;;12.40;99.90;;;;;;5017458;28;20030;-72
2021/10/25 13:50:15;;;;;;;6.55;3.70;;;12.40;99.90;;;;;;5015606;28;20026;-71
2021/10/25 13:52:42;;;;;;;9.50;4.22;;;12.40;99.90;;;;;;5023187;28;20480;-72
2021/10/25 13:55:09;;;;;;;10.50;4.25;;;12.40;99.90;;;;;;5023181;28;20026;-75
2021/10/25 13:57:38;;;;;;;6.38;3.92;;;12.40;99.90;;;;;;5022606;28;20571;-74
2021/10/25 14:00:13;;;;;;;7.05;3.90;;;12.40;99.90;;;;;;5011695;28;20182;-74
2021/10/25 14:02:41;;;;;;;8.15;4.15;;;12.40;99.90;;;;;;5016023;28;20036;-74
2021/10/25 14:05:10;;;;;;;8.95;4.05;;;12.40;99.90;;;;;;5019923;28;20029;-74
2021/10/25 14:07:36;;;;;;;14.80;4.75;;;12.40;99.90;;;;;;5012717;28;20038;-74
2021/10/25 14:10:37;;;;;;;9.32;4.70;;;12.50;99.90;;;;;;5020283;28;20408;-74
2021/10/25 14:12:57;;;;;;;10.73;4.03;;;12.40;99.90;;;;;;5020560;28;20184;-73
2021/10/25 14:15:28;;;;;;;10.57;4.30;;;12.40;99.90;;;;;;5021168;28;20116;-74
2021/10/25 14:17:56;;;;;;;8.00;3.95;;;12.40;99.90;;;;;;5014610;28;20098;-73
2021/10/25 14:20:25;;;;;;;9.30;4.15;;;12.40;99.90;;;;;;5015554;28;20171;-71
2021/10/25 14:22:54;;;;;;;7.25;3.75;;;12.40;99.90;;;;;;5010795;28;20030;-73
2021/10/25 14:25:19;;;;;;;7.30;3.90;;;12.30;99.90;;;;;;5012255;28;20053;-72
2021/10/25 14:27:45;;;;;;;9.80;4.47;;;12.40;99.90;;;;;;5021589;28;20069;-72
2021/10/25 14:30:11;;;;;;;12.07;5.55;;;12.30;99.90;;;;;;5015333;28;20030;-71
2021/10/25 14:32:38;;;;;;;8.57;4.78;;;12.30;99.90;;;;;;5017934;28;20026;-71
2021/10/25 14:35:05;;;;;;;14.38;4.85;;;12.30;99.90;;;;;;5017830;28;20030;-71
2021/10/25 14:37:40;;;;;;;5.88;4.10;;;12.20;99.90;;;;;;5021210;28;20025;-71
2021/10/25 14:40:14;;;;;;;6.32;3.83;;;12.20;99.90;;;;;;5017196;28;20029;-71